Time;durP1;ratioP1;P1;durP2;ratioP2;P2;SDS_P1;SDS_P2;PMS_P1;PMS_P2;Temp;Humidity;BMP_temperature;BMP_pressure;BME280_temperature;BME280_humidity;BME280_pressure;Samples;Min_cycle;Max_cycle;Signal;HPM_P1;HPM_P2
2023/10/22 00:02:07;;;;;;;2.45;0.65;;;;;;;11.86;100.00;99501.56;5011463;28;20047;-66
2023/10/22 00:04:32;;;;;;;2.40;0.55;;;;;;;11.83;100.00;99501.56;5015246;28;20418;-67
2023/10/22 00:06:58;;;;;;;3.28;0.60;;;;;;;11.82;100.00;99497.25;5006831;28;20045;-66
2023/10/22 00:09:23;;;;;;;2.78;0.70;;;;;;;11.83;100.00;99499.84;5019417;28;20021;-66
2023/10/22 00:11:49;;;;;;;1.45;0.60;;;;;;;11.82;100.00;99512.81;4995239;28;20026;-67
2023/10/22 00:14:14;;;;;;;3.15;0.80;;;;;;;11.81;100.00;99516.25;4995461;28;20026;-66
2023/10/22 00:16:39;;;;;;;3.72;0.50;;;;;;;11.82;100.00;99518.00;4997409;28;20022;-66
2023/10/22 00:19:05;;;;;;;4.28;0.80;;;;;;;11.81;100.00;99524.91;4991081;28;20025;-66
2023/10/22 00:21:30;;;;;;;3.22;0.50;;;;;;;11.79;100.00;99523.16;4988277;28;20014;-66
2023/10/22 00:23:55;;;;;;;4.15;0.90;;;;;;;11.79;100.00;99529.22;5000674;28;20025;-66
2023/10/22 00:26:21;;;;;;;2.58;0.50;;;;;;;11.80;100.00;99530.09;5006897;28;20112;-65
2023/10/22 00:28:46;;;;;;;1.48;0.55;;;;;;;11.81;100.00;99537.00;5011025;28;20651;-66
2023/10/22 00:31:11;;;;;;;2.25;0.60;;;;;;;11.81;100.00;99537.00;5017102;28;20018;-66
2023/10/22 00:33:37;;;;;;;2.50;0.50;;;;;;;11.82;100.00;99539.63;5005868;28;20107;-65
2023/10/22 00:36:02;;;;;;;1.42;0.50;;;;;;;11.86;100.00;99556.06;5006253;28;20661;-65
2023/10/22 00:38:28;;;;;;;2.08;0.50;;;;;;;11.87;100.00;99555.25;5008060;28;20014;-66
2023/10/22 00:40:53;;;;;;;1.88;0.60;;;;;;;11.90;100.00;99552.66;5008418;28;20101;-66
2023/10/22 00:43:19;;;;;;;3.03;0.80;;;;;;;11.92;100.00;99556.13;5011103;28;20017;-66
2023/10/22 00:45:44;;;;;;;1.63;0.57;;;;;;;11.95;100.00;99555.25;5011489;28;20026;-66
2023/10/22 00:48:10;;;;;;;3.30;0.52;;;;;;;11.95;100.00;99566.53;5010885;28;20520;-66
2023/10/22 00:50:39;;;;;;;4.47;1.13;;;;;;;11.95;100.00;99550.94;5010977;28;20028;-66
2023/10/22 00:53:05;;;;;;;2.25;0.60;;;;;;;11.97;100.00;99564.81;5030218;28;20373;-66
2023/10/22 00:55:30;;;;;;;3.03;0.73;;;;;;;11.99;100.00;99572.59;5014852;28;20032;-66
2023/10/22 00:57:57;;;;;;;2.78;0.65;;;;;;;11.99;100.00;99568.28;5010838;28;20026;-66
2023/10/22 01:00:23;;;;;;;3.75;0.63;;;;;;;11.99;100.00;99576.06;5010301;28;20500;-65
2023/10/22 01:02:48;;;;;;;1.42;0.60;;;;;;;12.00;100.00;99579.53;5010458;28;20041;-66
2023/10/22 01:05:13;;;;;;;2.80;0.70;;;;;;;12.01;100.00;99571.75;5012113;28;20022;-66
2023/10/22 01:07:39;;;;;;;2.45;0.63;;;;;;;12.01;100.00;99584.75;5029821;28;20026;-65
2023/10/22 01:10:04;;;;;;;1.95;0.75;;;;;;;12.04;100.00;99576.09;5002006;28;20394;-66
2023/10/22 01:12:38;;;;;;;3.08;0.65;;;;;;;12.04;100.00;99572.63;5002364;28;20475;-66
2023/10/22 01:15:04;;;;;;;1.30;0.60;;;;;;;12.07;100.00;99580.44;5022597;28;20068;-65
2023/10/22 01:17:29;;;;;;;4.85;0.82;;;;;;;12.09;100.00;99589.09;5013216;28;20118;-66
2023/10/22 01:19:55;;;;;;;3.13;0.60;;;;;;;12.10;100.00;99585.69;5012967;28;20025;-66
2023/10/22 01:22:20;;;;;;;2.60;0.57;;;;;;;12.10;100.00;99585.69;5008943;28;20170;-66
2023/10/22 01:24:46;;;;;;;3.13;0.90;;;;;;;12.10;100.00;99596.06;5012429;28;20634;-66
2023/10/22 01:27:11;;;;;;;2.15;0.80;;;;;;;12.10;100.00;99588.28;4991163;28;20044;-66
2023/10/22 01:29:36;;;;;;;2.30;0.70;;;;;;;12.11;100.00;99600.38;5002882;28;20022;-66
2023/10/22 01:32:02;;;;;;;2.72;0.70;;;;;;;12.10;100.00;99607.34;4999984;28;20030;-66
2023/10/22 01:34:28;;;;;;;1.52;0.57;;;;;;;12.11;100.00;99603.00;5008381;28;20026;-66
2023/10/22 01:36:53;;;;;;;1.35;0.38;;;;;;;12.11;100.00;99614.25;5028548;28;20026;-65
2023/10/22 01:39:18;;;;;;;1.40;0.70;;;;;;;12.12;100.00;99621.16;4996599;28;20038;-65
2023/10/22 01:41:44;;;;;;;1.00;0.47;;;;;;;12.12;100.00;99626.38;5008545;28;20046;-66
2023/10/22 01:44:09;;;;;;;3.55;0.80;;;;;;;12.12;100.00;99633.31;5010377;28;20382;-65
2023/10/22 01:46:35;;;;;;;1.48;0.77;;;;;;;12.11;100.00;99628.94;5008433;28;20433;-66
2023/10/22 01:49:00;;;;;;;2.63;0.60;;;;;;;12.10;100.00;99645.41;5010114;28;20136;-65
2023/10/22 01:51:25;;;;;;;3.25;1.15;;;;;;;12.10;100.00;99642.81;5007712;28;20450;-66
2023/10/22 01:53:51;;;;;;;1.90;0.75;;;;;;;12.06;100.00;99652.28;5014090;28;20024;-66
2023/10/22 01:56:16;;;;;;;3.20;0.68;;;;;;;11.96;100.00;99651.31;4996424;28;20033;-66
2023/10/22 01:58:43;;;;;;;2.88;0.70;;;;;;;11.92;100.00;99665.16;5004240;28;20034;-66
2023/10/22 02:01:09;;;;;;;2.70;1.00;;;;;;;11.84;100.00;99659.00;4994151;28;20034;-66
2023/10/22 02:03:35;;;;;;;3.35;1.20;;;;;;;11.79;100.00;99668.50;5020279;28;20030;-66
2023/10/22 02:06:00;;;;;;;6.25;2.42;;;;;;;11.72;100.00;99678.84;5020041;28;20121;-64
2023/10/22 02:08:25;;;;;;;3.85;0.98;;;;;;;11.64;100.00;99676.16;4991557;28;20030;-66
2023/10/22 02:10:51;;;;;;;3.60;1.17;;;;;;;11.58;100.00;99678.72;4992060;28;20022;-66
2023/10/22 02:13:17;;;;;;;3.10;1.02;;;;;;;11.51;100.00;99677.78;5028205;28;20100;-66
2023/10/22 02:15:43;;;;;;;3.85;1.08;;;;;;;11.45;100.00;99688.09;5004707;28;20023;-66
2023/10/22 02:18:08;;;;;;;2.95;0.88;;;;;;;11.39;100.00;99685.44;5009540;28;20096;-66
2023/10/22 02:20:34;;;;;;;3.72;1.05;;;;;;;11.33;100.00;99694.03;5008603;28;20541;-66
2023/10/22 02:23:00;;;;;;;2.10;0.93;;;;;;;11.31;100.00;99702.66;5018334;28;20064;-66
2023/10/22 02:25:26;;;;;;;4.72;1.27;;;;;;;11.26;100.00;99703.47;5013378;28;20025;-66
2023/10/22 02:27:51;;;;;;;3.42;0.90;;;;;;;11.24;100.00;99702.56;5023718;28;20033;-66
2023/10/22 02:30:17;;;;;;;4.13;1.25;;;;;;;11.21;100.00;99706.84;4999242;28;20026;-66
2023/10/22 02:32:42;;;;;;;2.47;1.00;;;;;;;11.17;100.00;99708.56;4989247;28;20058;-66
2023/10/22 02:35:10;;;;;;;4.45;1.20;;;;;;;11.14;100.00;99713.69;5000445;28;20022;-66
2023/10/22 02:37:35;;;;;;;7.97;1.30;;;;;;;11.08;100.00;99717.06;5008871;28;20872;-66
2023/10/22 02:40:01;;;;;;;3.22;1.02;;;;;;;11.09;100.00;99723.13;5008803;28;20037;-66
2023/10/22 02:42:27;;;;;;;3.10;1.27;;;;;;;11.06;100.00;99721.41;4992757;28;20462;-66
2023/10/22 02:44:52;;;;;;;4.95;1.15;;;;;;;11.02;100.00;99733.44;4998935;28;20025;-67
2023/10/22 02:47:17;;;;;;;4.97;1.17;;;;;;;11.00;100.00;99737.75;5008649;28;20526;-66
2023/10/22 02:49:43;;;;;;;5.32;1.33;;;;;;;10.99;100.00;99748.09;5008411;28;20026;-66
2023/10/22 02:52:08;;;;;;;3.80;1.08;;;;;;;10.99;100.00;99743.75;5008841;28;20107;-67
2023/10/22 02:54:33;;;;;;;4.70;1.30;;;;;;;11.01;100.00;99751.59;5008946;28;20034;-67
2023/10/22 02:56:59;;;;;;;2.58;1.30;;;;;;;11.01;100.00;99751.59;5008271;28;20029;-67
2023/10/22 02:59:25;;;;;;;4.93;1.00;;;;;;;10.96;100.00;99761.88;5017496;28;20032;-66
2023/10/22 03:01:50;;;;;;;2.72;1.40;;;;;;;10.95;100.00;99762.75;5011395;28;20022;-66
2023/10/22 03:04:15;;;;;;;2.13;1.00;;;;;;;10.95;100.00;99773.09;5008413;28;20061;-67
2023/10/22 03:06:40;;;;;;;3.90;1.10;;;;;;;10.97;100.00;99763.63;5006448;28;20064;-65
2023/10/22 03:09:07;;;;;;;3.30;1.45;;;;;;;10.95;100.00;99774.81;5008462;28;20410;-66
2023/10/22 03:11:32;;;;;;;3.15;1.67;;;;;;;10.93;100.00;99774.81;5008149;28;20037;-66
2023/10/22 03:13:58;;;;;;;2.58;1.20;;;;;;;10.93;100.00;99777.41;5008492;28;20124;-66
2023/10/22 03:16:23;;;;;;;3.50;1.50;;;;;;;10.95;100.00;99782.59;5008991;28;20029;-66
2023/10/22 03:18:49;;;;;;;5.30;1.48;;;;;;;10.95;100.00;99792.97;5021521;28;20051;-65
2023/10/22 03:21:19;;;;;;;2.35;1.48;;;;;;;10.93;100.00;99790.34;5007105;28;20529;-65
2023/10/22 03:23:45;;;;;;;2.40;1.00;;;;;;;10.91;100.00;99797.22;5006427;28;20036;-66
2023/10/22 03:26:14;;;;;;;3.90;1.48;;;;;;;10.92;100.00;99801.56;4999400;28;20078;-66
2023/10/22 03:28:40;;;;;;;3.28;1.80;;;;;;;10.87;100.00;99816.16;5009201;28;20048;-65
2023/10/22 03:31:05;;;;;;;6.25;2.22;;;;;;;10.85;100.00;99828.25;5005491;28;20021;-66
2023/10/22 03:33:33;;;;;;;2.85;2.17;;;;;;;10.85;100.00;99833.44;5006650;28;20410;-66
2023/10/22 03:35:59;;;;;;;3.35;1.88;;;;;;;10.86;100.00;99835.16;5010250;28;20021;-66
2023/10/22 03:38:26;;;;;;;3.85;2.33;;;;;;;10.85;100.00;99844.66;5016873;28;20494;-67
2023/10/22 03:40:58;;;;;;;4.45;2.00;;;;;;;10.83;100.00;99841.16;5006186;28;20018;-66
2023/10/22 03:43:25;;;;;;;4.18;2.50;;;;;;;10.79;100.00;99855.78;5012285;28;20101;-66
2023/10/22 03:45:50;;;;;;;4.68;2.70;;;;;;;10.78;100.00;99874.81;5007873;28;20536;-67
2023/10/22 03:48:15;;;;;;;5.57;2.67;;;;;;;10.74;100.00;99866.97;5012107;28;20018;-66
2023/10/22 03:50:43;;;;;;;5.85;3.03;;;;;;;10.73;100.00;99876.44;5017738;28;20025;-66
2023/10/22 03:53:08;;;;;;;5.18;2.70;;;;;;;10.75;100.00;99887.72;5013280;28;20018;-66
2023/10/22 03:55:34;;;;;;;4.18;2.95;;;;;;;10.70;100.00;99891.97;5012794;28;20088;-66
2023/10/22 03:57:59;;;;;;;5.07;3.75;;;;;;;10.68;100.00;99901.41;5008231;28;20382;-66
2023/10/22 04:00:24;;;;;;;3.92;3.55;;;;;;;10.66;100.00;99904.00;5018112;28;20047;-67
2023/10/22 04:02:49;;;;;;;7.85;3.63;;;;;;;10.66;100.00;99904.00;5012075;28;20044;-65
2023/10/22 04:05:15;;;;;;;7.40;3.47;;;;;;;10.64;100.00;99907.38;5008588;28;20260;-66
2023/10/22 04:07:40;;;;;;;6.13;3.40;;;;;;;10.66;100.00;99913.47;5012500;28;20397;-66
2023/10/22 04:10:09;;;;;;;5.07;3.25;;;;;;;10.66;100.00;99918.66;5007572;28;20048;-66
2023/10/22 04:12:35;;;;;;;5.78;3.28;;;;;;;10.64;100.00;99920.34;5007605;28;20022;-66
2023/10/22 04:15:00;;;;;;;6.47;3.80;;;;;;;10.61;100.00;99926.34;5006397;28;20036;-66
2023/10/22 04:17:26;;;;;;;5.40;3.63;;;;;;;10.62;100.00;99934.97;5007294;28;20355;-66
2023/10/22 04:19:51;;;;;;;4.07;3.67;;;;;;;10.55;100.00;99939.19;4998207;28;20030;-66
2023/10/22 04:22:16;;;;;;;5.30;3.22;;;;;;;10.57;100.00;99937.50;5001179;28;20474;-66
2023/10/22 04:24:42;;;;;;;4.95;3.42;;;;;;;10.54;100.00;99940.03;5007290;28;20026;-66
2023/10/22 04:27:07;;;;;;;2.97;2.67;;;;;;;10.52;100.00;99952.94;5007207;28;20052;-67
2023/10/22 04:29:32;;;;;;;4.88;3.40;;;;;;;10.51;100.00;99953.81;5020116;28;20614;-66
2023/10/22 04:31:57;;;;;;;3.97;2.80;;;;;;;10.52;100.00;99960.72;5021072;28;20026;-66
2023/10/22 04:34:23;;;;;;;4.55;3.10;;;;;;;10.49;100.00;99965.84;4997345;28;20032;-65
2023/10/22 04:36:48;;;;;;;4.57;3.40;;;;;;;10.52;100.00;99963.31;5018509;28;20021;-66
2023/10/22 04:39:13;;;;;;;5.25;3.42;;;;;;;10.54;100.00;99969.38;5011278;28;20466;-65
2023/10/22 04:41:38;;;;;;;6.85;3.40;;;;;;;10.51;100.00;99964.16;5016223;28;20045;-66
2023/10/22 04:44:04;;;;;;;4.15;3.13;;;;;;;10.53;100.00;99970.25;4994637;28;20022;-66
2023/10/22 04:46:30;;;;;;;4.88;3.05;;;;;;;10.51;100.00;99971.94;4997499;28;20021;-66
2023/10/22 04:48:55;;;;;;;4.43;2.50;;;;;;;10.50;100.00;99983.16;5006285;28;20054;-66
2023/10/22 04:51:21;;;;;;;5.65;3.40;;;;;;;10.43;100.00;99986.44;4998108;28;20455;-66
2023/10/22 04:53:46;;;;;;;5.93;3.25;;;;;;;10.36;100.00;99989.75;5005692;28;20013;-66
2023/10/22 04:56:12;;;;;;;6.47;3.15;;;;;;;10.33;100.00;99994.03;5007165;28;20025;-66
2023/10/22 04:58:37;;;;;;;6.25;2.63;;;;;;;10.30;100.00;99996.56;5003575;28;20041;-66
2023/10/22 05:01:02;;;;;;;5.55;3.10;;;;;;;10.30;100.00;100001.75;4998275;28;20024;-66
2023/10/22 05:03:28;;;;;;;5.47;3.30;;;;;;;10.26;100.00;99999.03;4989635;28;20053;-66
2023/10/22 05:05:54;;;;;;;7.00;3.28;;;;;;;10.23;100.00;100010.22;5006276;28;20026;-66
2023/10/22 05:08:23;;;;;;;5.22;3.35;;;;;;;10.18;100.00;100011.84;5024726;28;20021;-66
2023/10/22 05:10:48;;;;;;;4.82;3.10;;;;;;;10.17;100.00;100010.97;5025056;28;20057;-66
2023/10/22 05:13:13;;;;;;;6.65;3.70;;;;;;;10.17;100.00;100010.97;5004442;28;20567;-66
2023/10/22 05:15:38;;;;;;;4.43;3.40;;;;;;;10.13;100.00;100026.41;4996957;28;20032;-66
2023/10/22 05:18:05;;;;;;;11.15;3.95;;;;;;;10.11;100.00;100025.50;5018544;28;20033;-66
2023/10/22 05:20:31;;;;;;;5.80;2.97;;;;;;;10.09;100.00;100034.09;5011524;28;20045;-66
2023/10/22 05:22:57;;;;;;;4.88;3.47;;;;;;;10.04;100.00;100034.84;5006231;28;20116;-65
2023/10/22 05:25:22;;;;;;;5.03;3.33;;;;;;;9.97;100.00;100036.44;5006663;28;20509;-66
2023/10/22 05:27:47;;;;;;;3.72;3.20;;;;;;;10.00;100.00;100048.56;5012694;28;20022;-66
2023/10/22 05:30:13;;;;;;;5.20;2.97;;;;;;;9.97;100.00;100049.38;5001975;28;20348;-66
2023/10/22 05:32:39;;;;;;;6.55;3.40;;;;;;;9.94;100.00;100051.91;5006958;28;20359;-65
2023/10/22 05:35:06;;;;;;;5.80;2.80;;;;;;;9.91;100.00;100060.47;5010233;28;20188;-66
2023/10/22 05:37:32;;;;;;;4.75;3.60;;;;;;;9.90;100.00;100066.47;5004802;28;20390;-66
2023/10/22 05:39:57;;;;;;;5.85;3.42;;;;;;;9.85;100.00;100066.41;5011000;28;20103;-65
2023/10/22 05:42:22;;;;;;;5.57;3.20;;;;;;;9.83;100.00;100070.66;5010370;28;20046;-65
2023/10/22 05:44:47;;;;;;;5.85;3.30;;;;;;;9.81;100.00;100059.38;5006122;28;20490;-66
2023/10/22 05:47:13;;;;;;;3.35;2.85;;;;;;;9.79;100.00;100063.66;5007161;28;20033;-66
2023/10/22 05:49:38;;;;;;;5.88;3.20;;;;;;;9.79;100.00;100071.41;5013121;28;20029;-66
2023/10/22 05:52:03;;;;;;;5.72;2.80;;;;;;;9.77;100.00;100082.59;5011121;28;20022;-64
2023/10/22 05:54:29;;;;;;;4.60;2.90;;;;;;;9.75;100.00;100090.28;5013236;28;20499;-66
2023/10/22 05:56:54;;;;;;;3.22;2.45;;;;;;;9.72;100.00;100087.63;4998994;28;20026;-65
2023/10/22 05:59:19;;;;;;;2.25;2.05;;;;;;;9.67;100.00;100090.13;5024471;28;20029;-66
2023/10/22 06:01:45;;;;;;;4.50;2.55;;;;;;;9.63;100.00;100100.34;5019553;28;20025;-66
2023/10/22 06:04:10;;;;;;;3.35;2.70;;;;;;;9.58;100.00;100098.53;5005852;28;20104;-66
2023/10/22 06:06:36;;;;;;;5.70;2.92;;;;;;;9.52;100.00;100102.66;4996507;28;20427;-65
2023/10/22 06:09:02;;;;;;;3.17;2.28;;;;;;;9.49;100.00;100109.53;5009334;28;20388;-66
2023/10/22 06:11:28;;;;;;;3.25;2.53;;;;;;;9.45;100.00;100114.56;5008891;28;20501;-66
2023/10/22 06:13:53;;;;;;;3.38;2.15;;;;;;;9.43;100.00;100124.00;5015706;28;20041;-66
2023/10/22 06:16:18;;;;;;;4.32;2.42;;;;;;;9.39;100.00;100122.19;5016548;28;20030;-66
2023/10/22 06:18:45;;;;;;;5.03;2.20;;;;;;;9.37;100.00;100130.78;5001944;28;20041;-66
2023/10/22 06:21:12;;;;;;;4.80;1.90;;;;;;;9.37;100.00;100140.25;5006404;28;20026;-67
2023/10/22 06:23:37;;;;;;;2.58;1.65;;;;;;;9.36;100.00;100139.38;5000747;28;20481;-67
2023/10/22 06:26:02;;;;;;;6.38;2.63;;;;;;;9.36;100.00;100139.38;5013402;28;20026;-65
2023/10/22 06:28:27;;;;;;;2.90;2.47;;;;;;;9.36;100.00;100149.72;5019586;28;20101;-66
2023/10/22 06:30:53;;;;;;;5.03;2.75;;;;;;;9.40;100.00;100160.13;5009820;28;20112;-67
2023/10/22 06:33:18;;;;;;;7.50;3.13;;;;;;;9.41;100.00;100156.72;5011852;28;20018;-66
2023/10/22 06:35:43;;;;;;;4.80;3.00;;;;;;;9.43;100.00;100158.50;4995885;28;20550;-66
2023/10/22 06:38:10;;;;;;;6.05;2.60;;;;;;;9.47;100.00;100168.09;4998968;28;20022;-66
2023/10/22 06:40:36;;;;;;;3.42;2.30;;;;;;;9.50;100.00;100172.47;5007006;28;20030;-66
2023/10/22 06:43:02;;;;;;;4.63;2.20;;;;;;;9.55;100.00;100173.44;5011789;28;20721;-66
2023/10/22 06:45:27;;;;;;;6.10;2.13;;;;;;;9.57;100.00;100178.69;5006873;28;20552;-66
2023/10/22 06:47:56;;;;;;;3.30;1.50;;;;;;;9.59;100.00;100183.06;5006513;28;20029;-64
2023/10/22 06:50:21;;;;;;;4.78;1.77;;;;;;;9.64;100.00;100184.91;5016064;28;20484;-66
2023/10/22 06:52:46;;;;;;;2.85;1.50;;;;;;;9.68;100.00;100191.88;5001330;28;20022;-66
2023/10/22 06:55:12;;;;;;;4.97;2.03;;;;;;;9.70;100.00;100190.22;5014830;28;20029;-66
2023/10/22 06:57:38;;;;;;;4.68;1.40;;;;;;;9.73;100.00;100196.34;5006912;28;20026;-66
2023/10/22 07:00:04;;;;;;;7.05;1.58;;;;;;;9.78;100.00;100204.22;5018269;28;20140;-66
2023/10/22 07:02:32;;;;;;;4.82;1.13;;;;;;;9.80;100.00;100207.75;5000907;28;20022;-66
2023/10/22 07:04:58;;;;;;;2.13;1.63;;;;;;;9.84;100.00;100214.72;5011053;28;20036;-65
2023/10/22 07:07:24;;;;;;;2.83;1.00;;;;;;;9.88;100.00;100204.44;5011033;28;20470;-65
2023/10/22 07:09:49;;;;;;;3.10;0.98;;;;;;;9.91;100.00;100220.91;5000518;28;20040;-66
2023/10/22 07:12:15;;;;;;;3.35;1.10;;;;;;;9.94;100.00;100221.00;5002524;28;20026;-66
2023/10/22 07:14:40;;;;;;;4.53;1.35;;;;;;;9.98;100.00;100227.16;5010570;28;20029;-66
2023/10/22 07:17:06;;;;;;;1.98;0.93;;;;;;;9.97;100.00;100235.72;5015779;28;20103;-65
2023/10/22 07:19:31;;;;;;;4.10;1.00;;;;;;;9.97;100.00;100236.63;5017569;28;20021;-65
2023/10/22 07:21:56;;;;;;;2.40;0.90;;;;;;;9.98;100.00;100242.69;5005484;28;20034;-66
2023/10/22 07:24:22;;;;;;;2.47;1.05;;;;;;;9.99;100.00;100253.88;5011382;28;20370;-65
2023/10/22 07:26:47;;;;;;;4.00;1.08;;;;;;;9.97;100.00;100259.91;5010933;28;20033;-66
2023/10/22 07:29:13;;;;;;;5.10;1.02;;;;;;;9.94;100.00;100265.00;5005764;28;20033;-65
2023/10/22 07:31:39;;;;;;;3.85;1.00;;;;;;;9.94;100.00;100271.91;5000652;28;20040;-65
2023/10/22 07:34:04;;;;;;;3.30;1.38;;;;;;;9.94;100.00;100271.91;5015871;28;20381;-66
2023/10/22 07:36:30;;;;;;;2.80;1.00;;;;;;;9.92;100.00;100278.75;5004120;28;20068;-66
2023/10/22 07:38:55;;;;;;;3.05;1.58;;;;;;;9.93;100.00;100285.69;5013259;28;20634;-66
2023/10/22 07:41:20;;;;;;;4.40;1.25;;;;;;;9.93;100.00;100285.69;4987148;28;20038;-67
2023/10/22 07:43:46;;;;;;;3.97;1.63;;;;;;;9.94;100.00;100287.44;4987819;28;20030;-66
2023/10/22 07:46:14;;;;;;;3.17;1.38;;;;;;;9.93;100.00;100291.72;5013111;28;20079;-66
2023/10/22 07:48:40;;;;;;;5.40;1.30;;;;;;;9.91;100.00;100293.38;5004067;28;20544;-66
2023/10/22 07:51:11;;;;;;;3.72;1.10;;;;;;;9.95;100.00;100291.75;4999729;28;20025;-66
2023/10/22 07:53:37;;;;;;;5.32;1.20;;;;;;;9.94;100.00;100295.19;5018540;28;20045;-66
2023/10/22 07:56:04;;;;;;;2.33;1.15;;;;;;;9.99;100.00;100296.19;4989040;28;20065;-66
2023/10/22 07:58:29;;;;;;;3.08;1.45;;;;;;;10.05;100.00;100295.47;5003080;28;20026;-67
2023/10/22 08:00:54;;;;;;;3.55;1.95;;;;;;;10.08;100.00;100306.78;5007701;28;20025;-66
2023/10/22 08:03:20;;;;;;;5.10;1.23;;;;;;;10.13;100.00;100303.44;5008009;28;20508;-66
2023/10/22 08:05:45;;;;;;;4.28;1.52;;;;;;;10.20;100.00;100310.50;4999915;28;20471;-67
2023/10/22 08:08:10;;;;;;;2.47;1.17;;;;;;;10.28;100.00;100310.69;5015764;28;20021;-67
2023/10/22 08:10:35;;;;;;;4.20;1.50;;;;;;;10.32;100.00;100310.84;5014135;28;20159;-67
2023/10/22 08:13:01;;;;;;;3.67;1.13;;;;;;;10.40;100.00;100315.28;5011303;28;20529;-67
2023/10/22 08:15:26;;;;;;;4.47;1.40;;;;;;;10.52;100.00;100313.03;5005789;28;20029;-67
2023/10/22 08:17:51;;;;;;;3.20;1.10;;;;;;;10.57;100.00;100320.94;5005910;28;20296;-66
2023/10/22 08:20:17;;;;;;;4.03;1.50;;;;;;;10.63;100.00;100320.22;5005858;28;20112;-67
2023/10/22 08:22:42;;;;;;;3.40;1.23;;;;;;;10.72;100.00;100325.56;4992675;28;20388;-66
2023/10/22 08:25:08;;;;;;;3.47;1.20;;;;;;;10.79;100.00;100322.28;5006119;28;20029;-67
2023/10/22 08:27:34;;;;;;;3.25;1.75;;;;;;;10.87;100.00;100326.78;5007430;28;20517;-66
2023/10/22 08:29:59;;;;;;;2.08;1.10;;;;;;;10.90;100.00;100329.47;5016660;28;20022;-66
2023/10/22 08:32:24;;;;;;;3.10;1.50;;;;;;;10.97;100.00;100328.75;5013035;28;20375;-66
2023/10/22 08:34:50;;;;;;;4.40;1.38;;;;;;;11.11;100.00;100335.94;5001725;28;20030;-66
2023/10/22 08:37:16;;;;;;;3.63;1.20;;;;;;;11.26;100.00;100349.22;5003029;28;20100;-66
2023/10/22 08:39:41;;;;;;;5.75;1.83;;;;;;;11.60;100.00;100343.00;5007705;28;20393;-67
2023/10/22 08:42:11;;;;;;;2.47;1.40;;;;;;;12.03;100.00;100355.94;5006446;28;20042;-67
2023/10/22 08:44:45;;;;;;;3.85;1.40;;;;;;;12.35;100.00;100349.56;5007404;28;20025;-67
2023/10/22 08:47:11;;;;;;;7.07;1.33;;;;;;;12.49;100.00;100362.78;5006944;28;20101;-67
2023/10/22 08:49:40;;;;;;;1.77;1.45;;;;;;;12.55;100.00;100362.91;5007065;28;20101;-67
2023/10/22 08:52:07;;;;;;;4.03;1.75;;;;;;;12.44;100.00;100367.94;5008717;28;20095;-67
2023/10/22 08:54:33;;;;;;;4.60;1.60;;;;;;;12.38;100.00;100370.41;5006436;28;20033;-67
2023/10/22 08:56:59;;;;;;;2.55;1.30;;;;;;;12.44;100.00;100375.72;5004770;28;20030;-67
2023/10/22 08:59:25;;;;;;;5.43;1.60;;;;;;;12.51;100.00;100379.28;4996520;28;20022;-66
2023/10/22 09:01:50;;;;;;;4.07;1.55;;;;;;;12.51;100.00;100368.00;5006209;28;20021;-67
2023/10/22 09:04:17;;;;;;;3.55;1.38;;;;;;;12.48;100.00;100371.44;5011165;28;20072;-66
2023/10/22 09:06:42;;;;;;;2.50;1.23;;;;;;;12.39;100.00;100382.56;5010477;28;20018;-65
2023/10/22 09:09:08;;;;;;;4.03;1.45;;;;;;;12.39;100.00;100384.28;5010676;28;20048;-67
2023/10/22 09:11:34;;;;;;;2.25;1.33;;;;;;;12.32;100.00;100389.34;5009725;28;20040;-67
2023/10/22 09:14:00;;;;;;;3.55;1.48;;;;;;;12.31;100.00;100391.94;5011778;28;20018;-67
2023/10/22 09:16:33;;;;;;;3.95;1.50;;;;;;;12.35;100.00;100393.75;5017276;28;20032;-67
2023/10/22 09:19:01;;;;;;;3.95;1.73;;;;;;;12.35;100.00;100394.63;5016480;28;20119;-67
2023/10/22 09:21:47;;;;;;;3.42;1.75;;;;;;;12.28;100.00;100400.56;5019953;28;20109;-67
2023/10/22 09:24:12;;;;;;;2.17;1.98;;;;;;;12.31;100.00;100399.72;5013062;28;20103;-67
2023/10/22 09:26:42;;;;;;;2.70;1.63;;;;;;;12.20;100.00;100408.22;5008026;28;20030;-67
2023/10/22 09:29:07;;;;;;;4.18;2.00;;;;;;;12.20;100.00;100409.91;5018845;28;20064;-66
2023/10/22 09:31:33;;;;;;;3.33;2.00;;;;;;;12.18;100.00;100412.50;5014678;28;20058;-67
2023/10/22 09:33:59;;;;;;;5.25;1.88;;;;;;;12.20;100.00;100413.41;4990969;28;20137;-66
2023/10/22 09:36:25;;;;;;;9.07;2.80;;;;;;;12.21;100.00;100412.56;5007092;28;20025;-67
2023/10/22 09:38:52;;;;;;;3.85;2.20;;;;;;;12.24;100.00;100416.94;5004245;28;20363;-67
2023/10/22 09:41:23;;;;;;;3.35;2.10;;;;;;;12.27;100.00;100423.91;5003929;28;20132;-66
2023/10/22 09:43:59;;;;;;;2.15;1.73;;;;;;;12.24;100.00;100433.41;5028583;28;20455;-65
2023/10/22 09:46:29;;;;;;;3.05;2.22;;;;;;;12.18;100.00;100443.66;5020520;28;20137;-66
2023/10/22 09:48:58;;;;;;;3.53;2.70;;;;;;;12.13;100.00;100442.69;5009978;28;20076;-67
2023/10/22 09:51:26;;;;;;;3.38;2.30;;;;;;;12.18;100.00;100448.84;5020252;28;20077;-66
2023/10/22 09:53:54;;;;;;;3.33;1.73;;;;;;;12.21;100.00;100445.47;5009959;28;20025;-66
2023/10/22 09:56:21;;;;;;;4.82;2.22;;;;;;;12.23;100.00;100449.81;5010800;28;20108;-66
2023/10/22 09:58:59;;;;;;;3.92;2.47;;;;;;;12.25;100.00;100448.13;5004821;28;20014;-67
2023/10/22 10:01:29;;;;;;;4.43;2.10;;;;;;;12.30;100.00;100449.94;5004096;28;20493;-67
2023/10/22 10:03:58;;;;;;;2.88;2.40;;;;;;;12.27;100.00;100453.34;4997229;28;20076;-67
2023/10/22 10:06:24;;;;;;;3.53;2.20;;;;;;;12.29;100.00;100458.56;5009413;28;20560;-66
2023/10/22 10:08:50;;;;;;;3.28;2.60;;;;;;;12.31;100.00;100451.69;5010297;28;20029;-66
2023/10/22 10:11:15;;;;;;;2.97;2.22;;;;;;;12.32;100.00;100453.47;5008126;28;20542;-66
2023/10/22 10:13:41;;;;;;;5.07;2.58;;;;;;;12.30;100.00;100450.84;5008329;28;20024;-67
2023/10/22 10:16:07;;;;;;;3.53;2.67;;;;;;;12.27;100.00;100457.69;5009412;28;20076;-66
2023/10/22 10:18:58;;;;;;;3.38;2.22;;;;;;;12.34;100.00;100450.03;5009634;28;20022;-67
2023/10/22 10:21:45;;;;;;;4.00;2.42;;;;;;;12.41;100.00;100464.00;5014466;28;20490;-65
2023/10/22 10:24:30;;;;;;;5.78;2.42;;;;;;;12.47;100.00;100469.31;5002017;28;20573;-66
2023/10/22 10:26:56;;;;;;;2.95;2.63;;;;;;;12.44;100.00;100469.28;5000149;28;20026;-66
2023/10/22 10:29:26;;;;;;;4.25;2.65;;;;;;;12.47;100.00;100476.22;5007309;28;20022;-66
2023/10/22 10:31:54;;;;;;;2.72;2.47;;;;;;;12.45;100.00;100478.81;5005064;28;20021;-67
2023/10/22 10:34:27;;;;;;;4.00;2.60;;;;;;;12.43;100.00;100488.28;5021554;28;20033;-66
2023/10/22 10:36:52;;;;;;;3.85;2.75;;;;;;;12.40;100.00;100483.03;5020144;28;20064;-66
2023/10/22 10:39:41;;;;;;;5.30;3.08;;;;;;;12.39;100.00;100486.50;5010681;28;20069;-66
2023/10/22 10:42:07;;;;;;;3.70;2.83;;;;;;;12.42;100.00;100483.94;5008557;28;20050;-66
2023/10/22 10:44:52;;;;;;;3.13;2.75;;;;;;;12.45;100.00;100485.72;5008873;28;20072;-66
2023/10/22 10:47:20;;;;;;;2.58;2.33;;;;;;;12.48;100.00;100491.84;5008364;28;20021;-65
2023/10/22 10:50:03;;;;;;;4.35;2.95;;;;;;;12.52;100.00;100494.53;5007723;28;20032;-66
2023/10/22 10:52:48;;;;;;;4.03;3.00;;;;;;;12.53;100.00;100485.88;5006941;28;20021;-66
2023/10/22 10:55:19;;;;;;;3.17;2.55;;;;;;;12.55;100.00;100491.97;5009215;28;20041;-67
2023/10/22 10:57:47;;;;;;;;;;;;;;;12.53;100.00;100489.34;5010028;28;20054;-66
2023/10/22 11:00:20;;;;;;;3.15;2.85;;;;;;;12.52;100.00;100491.94;5007960;28;19979;-66
2023/10/22 11:02:47;;;;;;;2.65;2.45;;;;;;;12.51;100.00;100497.94;5008924;28;20103;-67
2023/10/22 11:05:14;;;;;;;4.72;2.75;;;;;;;12.54;100.00;100490.22;5008737;28;20072;-66
2023/10/22 11:07:42;;;;;;;3.15;2.50;;;;;;;12.56;100.00;100496.31;5007940;28;20018;-66
2023/10/22 11:10:16;;;;;;;3.08;2.63;;;;;;;12.58;100.00;100487.72;5008659;28;20467;-67
2023/10/22 11:12:44;;;;;;;5.03;2.70;;;;;;;12.57;100.00;100496.38;5006299;28;20026;-66
2023/10/22 11:15:11;;;;;;;4.35;2.80;;;;;;;12.58;100.00;100494.63;5013398;28;20025;-66
2023/10/22 11:17:38;;;;;;;5.18;2.95;;;;;;;12.66;100.00;100494.78;5008342;28;20049;-66
2023/10/22 11:20:05;;;;;;;3.28;2.97;;;;;;;12.61;100.00;100497.25;5008570;28;20105;-66